sensor_id;sensor_type;location;lat;lon;timestamp;temperature;humidity
49224;DHT22;35050;51.316;5.994;2022-12-18T00:02:24;-3.00;99.90
49224;DHT22;35050;51.316;5.994;2022-12-18T00:04:50;-2.90;99.90
49224;DHT22;35050;51.316;5.994;2022-12-18T00:07:16;-2.90;99.90
49224;DHT22;35050;51.316;5.994;2022-12-18T00:09:41;-2.90;99.90
49224;DHT22;35050;51.316;5.994;2022-12-18T00:12:07;-2.80;99.90
49224;DHT22;35050;51.316;5.994;2022-12-18T00:14:33;-2.80;99.90
49224;DHT22;35050;51.316;5.994;2022-12-18T00:16:59;-2.80;99.90
49224;DHT22;35050;51.316;5.994;2022-12-18T00:19:26;-2.70;99.90
49224;DHT22;35050;51.316;5.994;2022-12-18T00:21:51;-2.70;99.90
49224;DHT22;35050;51.316;5.994;2022-12-18T00:24:17;-2.80;99.90
49224;DHT22;35050;51.316;5.994;2022-12-18T00:26:42;-2.70;99.90
49224;DHT22;35050;51.316;5.994;2022-12-18T00:29:12;-2.70;99.90
49224;DHT22;35050;51.316;5.994;2022-12-18T00:31:40;-2.70;99.90
49224;DHT22;35050;51.316;5.994;2022-12-18T00:34:06;-2.70;99.90
49224;DHT22;35050;51.316;5.994;2022-12-18T00:36:34;-2.60;99.90
49224;DHT22;35050;51.316;5.994;2022-12-18T00:39:02;-2.60;99.90
49224;DHT22;35050;51.316;5.994;2022-12-18T00:41:28;-2.70;99.90
49224;DHT22;35050;51.316;5.994;2022-12-18T00:44:15;-2.80;99.90
49224;DHT22;35050;51.316;5.994;2022-12-18T00:46:41;-2.60;99.90
49224;DHT22;35050;51.316;5.994;2022-12-18T00:49:07;-2.80;99.90
49224;DHT22;35050;51.316;5.994;2022-12-18T00:51:33;-2.80;99.90
49224;DHT22;35050;51.316;5.994;2022-12-18T00:53:59;-2.90;99.90
49224;DHT22;35050;51.316;5.994;2022-12-18T00:56:24;-3.00;99.90
49224;DHT22;35050;51.316;5.994;2022-12-18T00:58:50;-2.90;99.90
49224;DHT22;35050;51.316;5.994;2022-12-18T01:01:16;-2.90;99.90
49224;DHT22;35050;51.316;5.994;2022-12-18T01:03:42;-2.90;99.90
49224;DHT22;35050;51.316;5.994;2022-12-18T01:06:11;-2.90;99.90
49224;DHT22;35050;51.316;5.994;2022-12-18T01:08:38;-3.10;99.90
49224;DHT22;35050;51.316;5.994;2022-12-18T01:11:09;-3.10;99.90
49224;DHT22;35050;51.316;5.994;2022-12-18T01:13:35;-3.10;99.90
49224;DHT22;35050;51.316;5.994;2022-12-18T01:16:00;-3.00;99.90
49224;DHT22;35050;51.316;5.994;2022-12-18T01:18:26;-2.90;99.90
49224;DHT22;35050;51.316;5.994;2022-12-18T01:20:52;-3.20;99.90
49224;DHT22;35050;51.316;5.994;2022-12-18T01:23:17;-3.00;99.90
49224;DHT22;35050;51.316;5.994;2022-12-18T01:25:43;-2.90;99.90
49224;DHT22;35050;51.316;5.994;2022-12-18T01:28:08;-3.00;99.90
49224;DHT22;35050;51.316;5.994;2022-12-18T01:30:34;-3.20;99.90
49224;DHT22;35050;51.316;5.994;2022-12-18T01:33:00;-3.00;99.90
49224;DHT22;35050;51.316;5.994;2022-12-18T01:35:25;-2.90;99.90
49224;DHT22;35050;51.316;5.994;2022-12-18T01:37:54;-2.90;99.90
49224;DHT22;35050;51.316;5.994;2022-12-18T01:40:20;-3.00;99.90
49224;DHT22;35050;51.316;5.994;2022-12-18T01:42:53;-3.00;99.90
49224;DHT22;35050;51.316;5.994;2022-12-18T01:45:29;-3.10;99.90
49224;DHT22;35050;51.316;5.994;2022-12-18T01:48:04;-3.10;99.90
49224;DHT22;35050;51.316;5.994;2022-12-18T01:50:32;-3.00;99.90
49224;DHT22;35050;51.316;5.994;2022-12-18T01:53:13;-3.00;99.90
49224;DHT22;35050;51.316;5.994;2022-12-18T01:55:50;-3.10;99.90
49224;DHT22;35050;51.316;5.994;2022-12-18T01:58:17;-3.00;99.90
49224;DHT22;35050;51.316;5.994;2022-12-18T02:00:43;-2.90;99.90
49224;DHT22;35050;51.316;5.994;2022-12-18T02:03:09;-2.90;99.90
49224;DHT22;35050;51.316;5.994;2022-12-18T02:08:24;-3.00;99.90
49224;DHT22;35050;51.316;5.994;2022-12-18T02:11:16;-3.10;99.90
49224;DHT22;35050;51.316;5.994;2022-12-18T02:19:20;-3.10;99.90
49224;DHT22;35050;51.316;5.994;2022-12-18T02:25:29;-3.10;99.90
49224;DHT22;35050;51.316;5.994;2022-12-18T02:27:31;-3.20;99.90
49224;DHT22;35050;51.316;5.994;2022-12-18T02:29:58;-3.20;99.90
49224;DHT22;35050;51.316;5.994;2022-12-18T02:32:28;-3.20;99.90
49224;DHT22;35050;51.316;5.994;2022-12-18T02:34:56;-3.20;99.90
49224;DHT22;35050;51.316;5.994;2022-12-18T02:37:23;-3.30;99.90
49224;DHT22;35050;51.316;5.994;2022-12-18T02:39:52;-3.40;99.90
49224;DHT22;35050;51.316;5.994;2022-12-18T02:42:20;-3.50;99.90
49224;DHT22;35050;51.316;5.994;2022-12-18T02:44:50;-3.40;99.90
49224;DHT22;35050;51.316;5.994;2022-12-18T02:47:22;-3.40;99.90
49224;DHT22;35050;51.316;5.994;2022-12-18T03:04:29;-3.40;99.90
49224;DHT22;35050;51.316;5.994;2022-12-18T03:07:02;-3.50;99.90
49224;DHT22;35050;51.316;5.994;2022-12-18T03:09:35;-3.60;99.90
49224;DHT22;35050;51.316;5.994;2022-12-18T03:12:10;-3.60;99.90
49224;DHT22;35050;51.316;5.994;2022-12-18T03:15:03;-3.50;99.90
49224;DHT22;35050;51.316;5.994;2022-12-18T03:17:32;-3.40;99.90
49224;DHT22;35050;51.316;5.994;2022-12-18T03:20:03;-3.50;99.90
49224;DHT22;35050;51.316;5.994;2022-12-18T03:22:32;-3.60;99.90
49224;DHT22;35050;51.316;5.994;2022-12-18T03:25:01;-3.40;99.90
49224;DHT22;35050;51.316;5.994;2022-12-18T03:27:28;-3.30;99.90
49224;DHT22;35050;51.316;5.994;2022-12-18T03:30:03;-3.40;99.90
49224;DHT22;35050;51.316;5.994;2022-12-18T03:35:41;-3.50;99.90
49224;DHT22;35050;51.316;5.994;2022-12-18T03:38:09;-3.70;99.90
49224;DHT22;35050;51.316;5.994;2022-12-18T03:40:59;-3.80;99.90
49224;DHT22;35050;51.316;5.994;2022-12-18T03:46:11;-3.70;99.90
49224;DHT22;35050;51.316;5.994;2022-12-18T03:48:44;-3.60;99.90
49224;DHT22;35050;51.316;5.994;2022-12-18T03:51:23;-3.70;99.90
49224;DHT22;35050;51.316;5.994;2022-12-18T03:53:52;-3.60;99.90
49224;DHT22;35050;51.316;5.994;2022-12-18T03:56:21;-3.70;99.90
49224;DHT22;35050;51.316;5.994;2022-12-18T03:58:49;-3.60;99.90
49224;DHT22;35050;51.316;5.994;2022-12-18T04:01:16;-3.70;99.90
49224;DHT22;35050;51.316;5.994;2022-12-18T04:03:44;-3.50;99.90
49224;DHT22;35050;51.316;5.994;2022-12-18T04:06:11;-3.70;99.90
49224;DHT22;35050;51.316;5.994;2022-12-18T04:08:37;-3.50;99.90
49224;DHT22;35050;51.316;5.994;2022-12-18T04:11:05;-3.60;99.90
49224;DHT22;35050;51.316;5.994;2022-12-18T04:13:36;-3.60;99.90
49224;DHT22;35050;51.316;5.994;2022-12-18T04:16:02;-3.50;99.90
49224;DHT22;35050;51.316;5.994;2022-12-18T04:18:28;-3.50;99.90
49224;DHT22;35050;51.316;5.994;2022-12-18T04:20:54;-3.50;99.90
49224;DHT22;35050;51.316;5.994;2022-12-18T04:23:19;-3.50;99.90
49224;DHT22;35050;51.316;5.994;2022-12-18T04:25:46;-3.60;99.90
49224;DHT22;35050;51.316;5.994;2022-12-18T04:28:12;-3.50;99.90
49224;DHT22;35050;51.316;5.994;2022-12-18T04:30:38;-3.60;99.90
49224;DHT22;35050;51.316;5.994;2022-12-18T04:33:03;-3.70;99.90
49224;DHT22;35050;51.316;5.994;2022-12-18T04:35:29;-3.80;99.90
49224;DHT22;35050;51.316;5.994;2022-12-18T04:37:55;-3.80;99.90
49224;DHT22;35050;51.316;5.994;2022-12-18T04:40:21;-3.80;99.90
49224;DHT22;35050;51.316;5.994;2022-12-18T04:42:46;-3.80;99.90
49224;DHT22;35050;51.316;5.994;2022-12-18T04:45:12;-3.80;99.90
49224;DHT22;35050;51.316;5.994;2022-12-18T04:47:38;-3.70;99.90
49224;DHT22;35050;51.316;5.994;2022-12-18T04:50:04;-3.80;99.90
49224;DHT22;35050;51.316;5.994;2022-12-18T04:52:29;-3.70;99.90
49224;DHT22;35050;51.316;5.994;2022-12-18T04:54:55;-3.70;99.90
49224;DHT22;35050;51.316;5.994;2022-12-18T04:57:20;-3.70;99.90
49224;DHT22;35050;51.316;5.994;2022-12-18T04:59:46;-3.60;99.90
49224;DHT22;35050;51.316;5.994;2022-12-18T05:02:12;-3.50;99.90
49224;DHT22;35050;51.316;5.994;2022-12-18T05:04:37;-3.50;99.90
49224;DHT22;35050;51.316;5.994;2022-12-18T05:07:04;-3.50;99.90
49224;DHT22;35050;51.316;5.994;2022-12-18T05:09:29;-3.40;99.90
49224;DHT22;35050;51.316;5.994;2022-12-18T05:11:55;-3.40;99.90
49224;DHT22;35050;51.316;5.994;2022-12-18T05:14:20;-3.40;99.90
49224;DHT22;35050;51.316;5.994;2022-12-18T05:16:46;-3.40;99.90
49224;DHT22;35050;51.316;5.994;2022-12-18T05:19:12;-3.40;99.90
49224;DHT22;35050;51.316;5.994;2022-12-18T05:21:37;-3.30;99.90
49224;DHT22;35050;51.316;5.994;2022-12-18T05:24:03;-3.30;99.90
49224;DHT22;35050;51.316;5.994;2022-12-18T05:26:29;-3.20;99.90
49224;DHT22;35050;51.316;5.994;2022-12-18T05:28:56;-3.10;99.90
49224;DHT22;35050;51.316;5.994;2022-12-18T05:31:22;-3.20;99.90
49224;DHT22;35050;51.316;5.994;2022-12-18T05:33:48;-3.10;99.90
49224;DHT22;35050;51.316;5.994;2022-12-18T05:36:13;-3.20;99.90
49224;DHT22;35050;51.316;5.994;2022-12-18T05:38:39;-3.30;99.90
49224;DHT22;35050;51.316;5.994;2022-12-18T05:41:06;-3.40;99.90
49224;DHT22;35050;51.316;5.994;2022-12-18T05:43:34;-3.40;99.90
49224;DHT22;35050;51.316;5.994;2022-12-18T05:46:07;-3.50;99.90
49224;DHT22;35050;51.316;5.994;2022-12-18T05:48:33;-3.50;99.90
49224;DHT22;35050;51.316;5.994;2022-12-18T05:51:08;-3.50;99.90
49224;DHT22;35050;51.316;5.994;2022-12-18T05:53:35;-3.50;99.90
49224;DHT22;35050;51.316;5.994;2022-12-18T05:56:03;-3.50;99.90
49224;DHT22;35050;51.316;5.994;2022-12-18T05:58:30;-3.60;99.90
49224;DHT22;35050;51.316;5.994;2022-12-18T06:00:56;-3.60;99.90
49224;DHT22;35050;51.316;5.994;2022-12-18T06:03:22;-3.70;99.90
49224;DHT22;35050;51.316;5.994;2022-12-18T06:05:48;-3.60;99.90
49224;DHT22;35050;51.316;5.994;2022-12-18T06:08:13;-3.70;99.90
49224;DHT22;35050;51.316;5.994;2022-12-18T06:10:40;-3.70;99.90
49224;DHT22;35050;51.316;5.994;2022-12-18T06:13:06;-3.60;99.90
49224;DHT22;35050;51.316;5.994;2022-12-18T06:15:32;-3.60;99.90
49224;DHT22;35050;51.316;5.994;2022-12-18T06:17:59;-3.60;99.90
49224;DHT22;35050;51.316;5.994;2022-12-18T06:20:25;-3.40;99.90
49224;DHT22;35050;51.316;5.994;2022-12-18T06:22:51;-3.40;99.90
49224;DHT22;35050;51.316;5.994;2022-12-18T06:25:16;-3.50;99.90
49224;DHT22;35050;51.316;5.994;2022-12-18T06:27:42;-3.40;99.90
49224;DHT22;35050;51.316;5.994;2022-12-18T06:30:08;-3.50;99.90
49224;DHT22;35050;51.316;5.994;2022-12-18T06:32:34;-3.50;99.90
49224;DHT22;35050;51.316;5.994;2022-12-18T06:35:00;-3.60;99.90
49224;DHT22;35050;51.316;5.994;2022-12-18T06:37:25;-3.60;99.90
49224;DHT22;35050;51.316;5.994;2022-12-18T06:39:52;-3.60;99.90
49224;DHT22;35050;51.316;5.994;2022-12-18T06:42:18;-3.60;99.90
49224;DHT22;35050;51.316;5.994;2022-12-18T06:44:44;-3.60;99.90
49224;DHT22;35050;51.316;5.994;2022-12-18T06:47:09;-3.50;99.90
49224;DHT22;35050;51.316;5.994;2022-12-18T06:49:35;-3.50;99.90
49224;DHT22;35050;51.316;5.994;2022-12-18T06:52:00;-3.50;99.90
49224;DHT22;35050;51.316;5.994;2022-12-18T06:54:26;-3.50;99.90
49224;DHT22;35050;51.316;5.994;2022-12-18T06:56:52;-3.30;99.90
49224;DHT22;35050;51.316;5.994;2022-12-18T06:59:17;-3.30;99.90
49224;DHT22;35050;51.316;5.994;2022-12-18T07:01:43;-3.40;99.90
49224;DHT22;35050;51.316;5.994;2022-12-18T07:04:09;-3.30;99.90
49224;DHT22;35050;51.316;5.994;2022-12-18T07:06:34;-3.30;99.90
49224;DHT22;35050;51.316;5.994;2022-12-18T07:09:00;-3.30;99.90
49224;DHT22;35050;51.316;5.994;2022-12-18T07:11:25;-3.20;99.90
49224;DHT22;35050;51.316;5.994;2022-12-18T07:13:52;-3.30;99.90
49224;DHT22;35050;51.316;5.994;2022-12-18T07:16:20;-3.40;99.90
49224;DHT22;35050;51.316;5.994;2022-12-18T07:18:46;-3.60;99.90
49224;DHT22;35050;51.316;5.994;2022-12-18T07:21:14;-3.50;99.90
49224;DHT22;35050;51.316;5.994;2022-12-18T07:23:40;-3.50;99.90
49224;DHT22;35050;51.316;5.994;2022-12-18T07:26:09;-3.30;99.90
49224;DHT22;35050;51.316;5.994;2022-12-18T07:28:36;-3.30;99.90
49224;DHT22;35050;51.316;5.994;2022-12-18T07:31:06;-3.40;99.90
49224;DHT22;35050;51.316;5.994;2022-12-18T07:33:33;-3.30;99.90
49224;DHT22;35050;51.316;5.994;2022-12-18T07:36:04;-3.30;99.90
49224;DHT22;35050;51.316;5.994;2022-12-18T07:38:31;-3.30;99.90
49224;DHT22;35050;51.316;5.994;2022-12-18T07:41:07;-3.30;99.90
49224;DHT22;35050;51.316;5.994;2022-12-18T07:43:34;-3.30;99.90
49224;DHT22;35050;51.316;5.994;2022-12-18T07:46:00;-3.20;99.90
49224;DHT22;35050;51.316;5.994;2022-12-18T07:48:27;-3.30;99.90
49224;DHT22;35050;51.316;5.994;2022-12-18T07:50:52;-3.20;99.90
49224;DHT22;35050;51.316;5.994;2022-12-18T07:53:18;-3.30;99.90
49224;DHT22;35050;51.316;5.994;2022-12-18T07:55:44;-3.20;99.90
49224;DHT22;35050;51.316;5.994;2022-12-18T07:58:10;-3.20;99.90
49224;DHT22;35050;51.316;5.994;2022-12-18T08:00:36;-3.20;99.90
49224;DHT22;35050;51.316;5.994;2022-12-18T08:03:01;-3.30;99.90
49224;DHT22;35050;51.316;5.994;2022-12-18T08:05:27;-3.20;99.90
49224;DHT22;35050;51.316;5.994;2022-12-18T08:07:53;-3.10;99.90
49224;DHT22;35050;51.316;5.994;2022-12-18T08:10:19;-3.10;99.90
49224;DHT22;35050;51.316;5.994;2022-12-18T08:12:45;-2.40;99.90
49224;DHT22;35050;51.316;5.994;2022-12-18T08:15:11;-2.70;99.90
49224;DHT22;35050;51.316;5.994;2022-12-18T08:17:36;-2.00;99.90
49224;DHT22;35050;51.316;5.994;2022-12-18T08:20:02;-2.20;99.90
49224;DHT22;35050;51.316;5.994;2022-12-18T08:22:28;-2.00;99.90
49224;DHT22;35050;51.316;5.994;2022-12-18T08:24:54;-2.20;99.90
49224;DHT22;35050;51.316;5.994;2022-12-18T08:27:20;-2.40;99.90
49224;DHT22;35050;51.316;5.994;2022-12-18T08:29:45;-2.50;99.90
49224;DHT22;35050;51.316;5.994;2022-12-18T08:32:11;-2.50;99.90
49224;DHT22;35050;51.316;5.994;2022-12-18T08:34:37;-2.50;99.90
49224;DHT22;35050;51.316;5.994;2022-12-18T08:37:03;-2.60;99.90
49224;DHT22;35050;51.316;5.994;2022-12-18T08:39:29;-2.60;99.90
49224;DHT22;35050;51.316;5.994;2022-12-18T08:41:54;-2.50;99.90
49224;DHT22;35050;51.316;5.994;2022-12-18T08:44:38;-2.30;99.90
49224;DHT22;35050;51.316;5.994;2022-12-18T08:47:05;-2.30;99.90
49224;DHT22;35050;51.316;5.994;2022-12-18T08:49:31;-2.30;99.90
49224;DHT22;35050;51.316;5.994;2022-12-18T08:51:57;-2.20;99.90
49224;DHT22;35050;51.316;5.994;2022-12-18T08:54:23;-2.20;99.90
49224;DHT22;35050;51.316;5.994;2022-12-18T08:56:49;-2.20;99.90
49224;DHT22;35050;51.316;5.994;2022-12-18T08:59:16;-2.20;99.90
49224;DHT22;35050;51.316;5.994;2022-12-18T09:01:42;-2.10;99.90
49224;DHT22;35050;51.316;5.994;2022-12-18T09:04:11;-2.00;99.90
49224;DHT22;35050;51.316;5.994;2022-12-18T09:06:37;-2.10;99.90
49224;DHT22;35050;51.316;5.994;2022-12-18T09:09:04;-2.00;99.90
49224;DHT22;35050;51.316;5.994;2022-12-18T09:11:30;-2.00;99.90
49224;DHT22;35050;51.316;5.994;2022-12-18T09:13:58;-1.90;99.90
49224;DHT22;35050;51.316;5.994;2022-12-18T09:16:24;-1.90;99.90
49224;DHT22;35050;51.316;5.994;2022-12-18T09:18:50;-1.90;99.90
49224;DHT22;35050;51.316;5.994;2022-12-18T09:21:18;-1.80;99.90
49224;DHT22;35050;51.316;5.994;2022-12-18T09:23:52;-1.70;99.90
49224;DHT22;35050;51.316;5.994;2022-12-18T09:26:18;-1.60;99.90
49224;DHT22;35050;51.316;5.994;2022-12-18T09:28:44;-1.80;99.90
49224;DHT22;35050;51.316;5.994;2022-12-18T09:31:11;-1.50;99.90
49224;DHT22;35050;51.316;5.994;2022-12-18T09:33:38;-1.50;99.90
49224;DHT22;35050;51.316;5.994;2022-12-18T09:36:05;-1.50;99.90
49224;DHT22;35050;51.316;5.994;2022-12-18T09:38:33;-1.40;99.90
49224;DHT22;35050;51.316;5.994;2022-12-18T09:41:15;-1.40;99.90
49224;DHT22;35050;51.316;5.994;2022-12-18T09:43:43;-1.30;99.90
49224;DHT22;35050;51.316;5.994;2022-12-18T09:46:17;-1.30;99.90
49224;DHT22;35050;51.316;5.994;2022-12-18T09:48:49;-1.10;99.90
49224;DHT22;35050;51.316;5.994;2022-12-18T09:51:19;-1.10;99.90
49224;DHT22;35050;51.316;5.994;2022-12-18T09:53:51;-1.30;99.90
49224;DHT22;35050;51.316;5.994;2022-12-18T09:56:19;-1.00;99.90
49224;DHT22;35050;51.316;5.994;2022-12-18T09:59:01;-1.10;99.90
49224;DHT22;35050;51.316;5.994;2022-12-18T10:01:29;-0.90;99.90
49224;DHT22;35050;51.316;5.994;2022-12-18T10:03:55;-1.00;99.90
49224;DHT22;35050;51.316;5.994;2022-12-18T10:09:11;-0.90;99.90
49224;DHT22;35050;51.316;5.994;2022-12-18T10:14:51;-0.60;99.90
49224;DHT22;35050;51.316;5.994;2022-12-18T10:17:26;-0.50;99.90
49224;DHT22;35050;51.316;5.994;2022-12-18T10:20:00;-0.60;99.90
49224;DHT22;35050;51.316;5.994;2022-12-18T10:22:42;-0.70;99.90
49224;DHT22;35050;51.316;5.994;2022-12-18T10:28:20;-0.60;99.90
49224;DHT22;35050;51.316;5.994;2022-12-18T10:30:46;-0.60;99.90
49224;DHT22;35050;51.316;5.994;2022-12-18T10:33:14;-0.40;99.90
49224;DHT22;35050;51.316;5.994;2022-12-18T10:35:42;-0.30;99.90
49224;DHT22;35050;51.316;5.994;2022-12-18T10:41:05;-0.30;99.90
49224;DHT22;35050;51.316;5.994;2022-12-18T10:43:38;-0.20;99.90
49224;DHT22;35050;51.316;5.994;2022-12-18T10:48:36;0.00;99.90
49224;DHT22;35050;51.316;5.994;2022-12-18T10:51:05;0.10;99.90
49224;DHT22;35050;51.316;5.994;2022-12-18T10:53:33;0.00;99.90
49224;DHT22;35050;51.316;5.994;2022-12-18T10:56:00;0.20;99.90
49224;DHT22;35050;51.316;5.994;2022-12-18T10:58:35;0.00;99.90
49224;DHT22;35050;51.316;5.994;2022-12-18T11:01:11;0.00;99.90
49224;DHT22;35050;51.316;5.994;2022-12-18T11:03:40;0.00;99.90
49224;DHT22;35050;51.316;5.994;2022-12-18T11:06:15;0.10;99.90
49224;DHT22;35050;51.316;5.994;2022-12-18T11:08:43;0.20;99.90
49224;DHT22;35050;51.316;5.994;2022-12-18T11:11:35;0.20;99.90
49224;DHT22;35050;51.316;5.994;2022-12-18T11:14:05;0.10;99.90
49224;DHT22;35050;51.316;5.994;2022-12-18T11:16:43;0.10;99.90
49224;DHT22;35050;51.316;5.994;2022-12-18T11:21:47;0.40;99.90
49224;DHT22;35050;51.316;5.994;2022-12-18T11:24:30;0.20;99.90
49224;DHT22;35050;51.316;5.994;2022-12-18T11:27:02;0.20;99.90
49224;DHT22;35050;51.316;5.994;2022-12-18T11:29:33;0.10;99.90
49224;DHT22;35050;51.316;5.994;2022-12-18T11:34:42;0.30;99.90
49224;DHT22;35050;51.316;5.994;2022-12-18T11:37:10;0.30;99.90
49224;DHT22;35050;51.316;5.994;2022-12-18T11:39:42;0.30;99.90
49224;DHT22;35050;51.316;5.994;2022-12-18T11:42:20;0.40;99.90
49224;DHT22;35050;51.316;5.994;2022-12-18T11:44:57;0.50;99.90
49224;DHT22;35050;51.316;5.994;2022-12-18T11:50:51;0.70;99.90
49224;DHT22;35050;51.316;5.994;2022-12-18T11:53:18;0.60;99.90
49224;DHT22;35050;51.316;5.994;2022-12-18T11:56:11;0.60;99.90
49224;DHT22;35050;51.316;5.994;2022-12-18T12:10:23;0.90;99.90
49224;DHT22;35050;51.316;5.994;2022-12-18T12:26:30;1.00;99.90
49224;DHT22;35050;51.316;5.994;2022-12-18T12:37:03;1.70;99.90
49224;DHT22;35050;51.316;5.994;2022-12-18T12:39:35;1.30;99.90
49224;DHT22;35050;51.316;5.994;2022-12-18T12:42:08;1.10;99.90
49224;DHT22;35050;51.316;5.994;2022-12-18T12:44:57;1.10;99.90
49224;DHT22;35050;51.316;5.994;2022-12-18T12:47:28;1.10;99.90
49224;DHT22;35050;51.316;5.994;2022-12-18T12:49:57;1.10;99.90
49224;DHT22;35050;51.316;5.994;2022-12-18T12:54:58;1.20;99.90
49224;DHT22;35050;51.316;5.994;2022-12-18T12:57:34;1.30;99.90
49224;DHT22;35050;51.316;5.994;2022-12-18T13:07:51;1.20;99.90
49224;DHT22;35050;51.316;5.994;2022-12-18T13:15:31;1.40;99.90
49224;DHT22;35050;51.316;5.994;2022-12-18T13:25:52;1.40;99.90
49224;DHT22;35050;51.316;5.994;2022-12-18T13:31:01;1.30;99.90
49224;DHT22;35050;51.316;5.994;2022-12-18T13:38:47;1.40;99.90
49224;DHT22;35050;51.316;5.994;2022-12-18T13:41:33;1.40;99.90
49224;DHT22;35050;51.316;5.994;2022-12-18T13:44:34;1.40;99.90
49224;DHT22;35050;51.316;5.994;2022-12-18T13:47:01;1.30;99.90
49224;DHT22;35050;51.316;5.994;2022-12-18T13:49:42;1.40;99.90
49224;DHT22;35050;51.316;5.994;2022-12-18T13:52:22;1.40;99.90
49224;DHT22;35050;51.316;5.994;2022-12-18T13:54:59;1.40;99.90
49224;DHT22;35050;51.316;5.994;2022-12-18T13:57:30;1.50;99.90
49224;DHT22;35050;51.316;5.994;2022-12-18T13:59:57;1.50;99.90
49224;DHT22;35050;51.316;5.994;2022-12-18T14:02:25;1.50;99.90
49224;DHT22;35050;51.316;5.994;2022-12-18T14:04:52;1.50;99.90
49224;DHT22;35050;51.316;5.994;2022-12-18T14:09:52;1.40;99.90
49224;DHT22;35050;51.316;5.994;2022-12-18T14:12:22;1.40;99.90
49224;DHT22;35050;51.316;5.994;2022-12-18T14:15:35;1.20;99.90
49224;DHT22;35050;51.316;5.994;2022-12-18T14:20:30;1.30;99.90
49224;DHT22;35050;51.316;5.994;2022-12-18T14:22:57;1.30;99.90
49224;DHT22;35050;51.316;5.994;2022-12-18T14:25:25;1.20;99.90
49224;DHT22;35050;51.316;5.994;2022-12-18T14:28:14;1.20;99.90
49224;DHT22;35050;51.316;5.994;2022-12-18T14:30:45;1.20;99.90
49224;DHT22;35050;51.316;5.994;2022-12-18T14:33:12;1.20;99.90
49224;DHT22;35050;51.316;5.994;2022-12-18T14:35:41;1.20;99.90
49224;DHT22;35050;51.316;5.994;2022-12-18T14:40:43;1.10;99.90
49224;DHT22;35050;51.316;5.994;2022-12-18T14:43:12;1.30;99.90
49224;DHT22;35050;51.316;5.994;2022-12-18T14:45:42;1.10;99.90
49224;DHT22;35050;51.316;5.994;2022-12-18T14:48:17;3.40;99.90
49224;DHT22;35050;51.316;5.994;2022-12-18T14:50:45;4.10;99.90
49224;DHT22;35050;51.316;5.994;2022-12-18T14:53:43;2.70;99.90
49224;DHT22;35050;51.316;5.994;2022-12-18T14:56:22;2.20;99.90
49224;DHT22;35050;51.316;5.994;2022-12-18T14:58:54;1.70;99.90
49224;DHT22;35050;51.316;5.994;2022-12-18T15:03:52;1.30;99.90
49224;DHT22;35050;51.316;5.994;2022-12-18T15:08:51;1.30;99.90
49224;DHT22;35050;51.316;5.994;2022-12-18T15:14:03;1.20;99.90
49224;DHT22;35050;51.316;5.994;2022-12-18T15:16:51;1.20;99.90
49224;DHT22;35050;51.316;5.994;2022-12-18T15:19:16;1.00;99.90
49224;DHT22;35050;51.316;5.994;2022-12-18T15:21:43;1.10;99.90
49224;DHT22;35050;51.316;5.994;2022-12-18T15:24:18;1.00;99.90
49224;DHT22;35050;51.316;5.994;2022-12-18T15:26:44;1.00;99.90
49224;DHT22;35050;51.316;5.994;2022-12-18T15:29:20;1.00;99.90
49224;DHT22;35050;51.316;5.994;2022-12-18T15:32:02;1.00;99.90
49224;DHT22;35050;51.316;5.994;2022-12-18T15:34:29;1.20;99.90
49224;DHT22;35050;51.316;5.994;2022-12-18T15:36:55;1.10;99.90
49224;DHT22;35050;51.316;5.994;2022-12-18T15:39:20;1.00;99.90
49224;DHT22;35050;51.316;5.994;2022-12-18T15:41:46;0.90;99.90
49224;DHT22;35050;51.316;5.994;2022-12-18T15:44:30;1.10;99.90
49224;DHT22;35050;51.316;5.994;2022-12-18T15:46:57;0.90;99.90
49224;DHT22;35050;51.316;5.994;2022-12-18T15:49:23;0.90;99.90
49224;DHT22;35050;51.316;5.994;2022-12-18T15:51:54;1.00;99.90
49224;DHT22;35050;51.316;5.994;2022-12-18T15:54:22;0.90;99.90
49224;DHT22;35050;51.316;5.994;2022-12-18T15:57:11;0.80;99.90
49224;DHT22;35050;51.316;5.994;2022-12-18T15:59:53;0.90;99.90
49224;DHT22;35050;51.316;5.994;2022-12-18T16:02:22;0.70;99.90
49224;DHT22;35050;51.316;5.994;2022-12-18T16:04:48;0.90;99.90
49224;DHT22;35050;51.316;5.994;2022-12-18T16:07:14;0.90;99.90
49224;DHT22;35050;51.316;5.994;2022-12-18T16:09:40;0.90;99.90
49224;DHT22;35050;51.316;5.994;2022-12-18T16:12:06;0.90;99.90
49224;DHT22;35050;51.316;5.994;2022-12-18T16:14:36;0.80;99.90
49224;DHT22;35050;51.316;5.994;2022-12-18T16:17:05;0.90;99.90
49224;DHT22;35050;51.316;5.994;2022-12-18T16:19:34;0.90;99.90
49224;DHT22;35050;51.316;5.994;2022-12-18T16:21:59;1.00;99.90
49224;DHT22;35050;51.316;5.994;2022-12-18T16:24:28;1.00;99.90
49224;DHT22;35050;51.316;5.994;2022-12-18T16:26:56;1.10;99.90
49224;DHT22;35050;51.316;5.994;2022-12-18T16:29:23;1.10;99.90
49224;DHT22;35050;51.316;5.994;2022-12-18T16:31:56;1.10;99.90
49224;DHT22;35050;51.316;5.994;2022-12-18T16:36:49;1.00;99.90
49224;DHT22;35050;51.316;5.994;2022-12-18T16:39:16;1.00;99.90
49224;DHT22;35050;51.316;5.994;2022-12-18T16:41:41;1.10;99.90
49224;DHT22;35050;51.316;5.994;2022-12-18T16:44:07;0.90;99.90
49224;DHT22;35050;51.316;5.994;2022-12-18T16:46:33;0.90;99.90
49224;DHT22;35050;51.316;5.994;2022-12-18T16:48:59;1.00;99.90
49224;DHT22;35050;51.316;5.994;2022-12-18T16:51:29;1.00;99.90
49224;DHT22;35050;51.316;5.994;2022-12-18T16:53:55;0.90;99.90
49224;DHT22;35050;51.316;5.994;2022-12-18T16:56:24;0.80;99.90
49224;DHT22;35050;51.316;5.994;2022-12-18T16:58:54;0.80;99.90
49224;DHT22;35050;51.316;5.994;2022-12-18T17:01:21;0.90;99.90
49224;DHT22;35050;51.316;5.994;2022-12-18T17:03:54;0.70;99.90
49224;DHT22;35050;51.316;5.994;2022-12-18T17:06:21;0.80;99.90
49224;DHT22;35050;51.316;5.994;2022-12-18T17:08:47;0.80;99.90
49224;DHT22;35050;51.316;5.994;2022-12-18T17:11:13;0.80;99.90
49224;DHT22;35050;51.316;5.994;2022-12-18T17:13:39;0.80;99.90
49224;DHT22;35050;51.316;5.994;2022-12-18T17:16:06;1.00;99.90
49224;DHT22;35050;51.316;5.994;2022-12-18T17:18:32;0.90;99.90
49224;DHT22;35050;51.316;5.994;2022-12-18T17:20:59;0.90;99.90
49224;DHT22;35050;51.316;5.994;2022-12-18T17:23:26;0.90;99.90
49224;DHT22;35050;51.316;5.994;2022-12-18T17:25:58;1.00;99.90
49224;DHT22;35050;51.316;5.994;2022-12-18T17:28:27;0.90;99.90
49224;DHT22;35050;51.316;5.994;2022-12-18T17:30:54;0.90;99.90
49224;DHT22;35050;51.316;5.994;2022-12-18T17:33:21;0.80;99.90
49224;DHT22;35050;51.316;5.994;2022-12-18T17:35:46;0.80;99.90
49224;DHT22;35050;51.316;5.994;2022-12-18T17:38:12;0.60;99.90
49224;DHT22;35050;51.316;5.994;2022-12-18T17:40:39;0.70;99.90
49224;DHT22;35050;51.316;5.994;2022-12-18T17:43:08;0.70;99.90
49224;DHT22;35050;51.316;5.994;2022-12-18T17:45:38;0.70;99.90
49224;DHT22;35050;51.316;5.994;2022-12-18T17:48:05;0.50;99.90
49224;DHT22;35050;51.316;5.994;2022-12-18T17:50:32;0.50;99.90
49224;DHT22;35050;51.316;5.994;2022-12-18T17:52:58;0.50;99.90
49224;DHT22;35050;51.316;5.994;2022-12-18T17:55:24;0.50;99.90
49224;DHT22;35050;51.316;5.994;2022-12-18T17:57:50;0.50;99.90
49224;DHT22;35050;51.316;5.994;2022-12-18T18:00:16;0.60;99.90
49224;DHT22;35050;51.316;5.994;2022-12-18T18:02:42;0.50;99.90
49224;DHT22;35050;51.316;5.994;2022-12-18T18:05:07;0.50;99.90
49224;DHT22;35050;51.316;5.994;2022-12-18T18:07:33;0.50;99.90